Time;durP1;ratioP1;P1;durP2;ratioP2;P2;SDS_P1;SDS_P2;PMS_P1;PMS_P2;Temp;Humidity;BMP_temperature;BMP_pressure;BME280_temperature;BME280_humidity;BME280_pressure;Samples;Min_cycle;Max_cycle;Signal;HPM_P1;HPM_P2
2021/05/20 00:00:16;;;;;;;20.55;13.63;;;8.80;99.90;;;;;;5060805;28;20052;-68
2021/05/20 00:02:43;;;;;;;14.60;11.68;;;8.90;99.90;;;;;;5061788;28;20082;-68
2021/05/20 00:05:10;;;;;;;19.23;12.95;;;8.70;99.90;;;;;;5066525;28;20041;-69
2021/05/20 00:07:36;;;;;;;19.60;13.75;;;8.50;99.90;;;;;;5060065;28;20103;-68
2021/05/20 00:10:03;;;;;;;22.10;15.63;;;8.40;99.90;;;;;;5064103;28;20028;-68
2021/05/20 00:12:29;;;;;;;23.40;14.95;;;8.40;99.90;;;;;;5064225;28;20052;-68
2021/05/20 00:14:55;;;;;;;28.35;18.60;;;8.30;99.90;;;;;;5054042;28;20740;-68
2021/05/20 00:17:20;;;;;;;24.90;17.35;;;8.40;99.90;;;;;;5057158;28;20040;-68
2021/05/20 00:19:46;;;;;;;28.38;18.35;;;8.40;99.90;;;;;;5059467;28;20036;-67
2021/05/20 00:22:11;;;;;;;27.80;19.23;;;8.40;99.90;;;;;;5063503;28;20033;-68
2021/05/20 00:24:37;;;;;;;25.35;16.65;;;8.30;99.90;;;;;;5062553;28;20074;-68
2021/05/20 00:27:03;;;;;;;26.75;18.38;;;8.20;99.90;;;;;;5060356;28;20148;-68
2021/05/20 00:29:29;;;;;;;31.33;20.17;;;8.40;99.90;;;;;;5060254;28;20032;-68
2021/05/20 00:31:55;;;;;;;27.52;20.38;;;8.40;99.90;;;;;;5058085;28;20112;-68
2021/05/20 00:34:20;;;;;;;30.52;21.02;;;8.40;99.90;;;;;;5067213;28;20112;-69
2021/05/20 00:36:46;;;;;;;30.85;22.17;;;8.30;99.90;;;;;;5060790;28;20040;-68
2021/05/20 00:39:11;;;;;;;26.60;20.52;;;8.40;99.90;;;;;;5067890;28;20032;-68
2021/05/20 00:41:37;;;;;;;28.58;20.63;;;8.40;99.90;;;;;;5060344;28;20389;-68
2021/05/20 00:44:03;;;;;;;26.95;20.92;;;8.30;99.90;;;;;;5057950;28;20375;-68
2021/05/20 00:46:29;;;;;;;27.83;20.50;;;8.10;99.90;;;;;;5060333;28;20048;-68
2021/05/20 00:48:54;;;;;;;29.63;22.58;;;8.10;99.90;;;;;;5058957;28;20082;-68
2021/05/20 00:51:20;;;;;;;30.90;22.23;;;8.10;99.90;;;;;;5060531;28;20033;-68
2021/05/20 00:53:50;;;;;;;31.55;20.85;;;8.00;99.90;;;;;;5058809;28;20025;-68
2021/05/20 00:56:19;;;;;;;28.85;20.77;;;8.00;99.90;;;;;;5060800;28;20043;-69
2021/05/20 00:58:45;;;;;;;28.55;20.30;;;8.00;99.90;;;;;;5058300;28;20119;-68
2021/05/20 01:01:12;;;;;;;31.83;21.63;;;8.00;99.90;;;;;;5059498;28;20028;-68
2021/05/20 01:03:39;;;;;;;28.40;20.65;;;8.10;99.90;;;;;;5059944;28;20028;-68
2021/05/20 01:06:05;;;;;;;26.17;20.50;;;8.20;99.90;;;;;;5058616;28;20021;-68
2021/05/20 01:08:31;;;;;;;24.17;18.50;;;7.90;99.90;;;;;;5061416;28;20028;-68
2021/05/20 01:10:58;;;;;;;25.67;18.20;;;7.70;99.90;;;;;;5061902;28;20070;-68
2021/05/20 01:13:24;;;;;;;24.92;18.80;;;7.70;99.90;;;;;;5061190;28;20025;-68
2021/05/20 01:15:50;;;;;;;26.48;19.80;;;7.70;99.90;;;;;;5061169;28;20301;-69
2021/05/20 01:18:15;;;;;;;30.27;20.98;;;7.70;99.90;;;;;;5063143;28;20105;-68
2021/05/20 01:20:44;;;;;;;34.13;22.40;;;7.70;99.90;;;;;;5061478;28;20020;-68
2021/05/20 01:23:12;;;;;;;31.23;21.80;;;7.70;99.90;;;;;;5051942;28;20284;-68
2021/05/20 01:25:41;;;;;;;26.90;19.63;;;7.70;99.90;;;;;;5059821;28;20060;-68
2021/05/20 01:28:09;;;;;;;29.02;21.30;;;7.80;99.90;;;;;;5059273;28;20409;-68
2021/05/20 01:30:37;;;;;;;33.78;23.98;;;7.70;99.90;;;;;;5066753;28;20074;-68
2021/05/20 01:33:03;;;;;;;39.25;26.55;;;7.70;99.90;;;;;;5059419;28;20029;-68
2021/05/20 01:35:29;;;;;;;47.17;30.15;;;7.80;99.90;;;;;;5059210;28;20124;-68
2021/05/20 01:40:59;;;;;;;;;;;8.10;99.90;;;;;;5059787;28;20036;-68
2021/05/20 01:43:26;;;;;;;23.80;18.33;;;8.10;99.90;;;;;;5059542;28;19908;-68
2021/05/20 01:45:58;;;;;;;28.10;20.00;;;8.00;99.90;;;;;;5058348;28;20054;-69
2021/05/20 01:48:29;;;;;;;38.53;24.10;;;7.90;99.90;;;;;;5054210;28;20044;-68
2021/05/20 01:51:04;;;;;;;33.78;23.15;;;7.90;99.90;;;;;;5061703;28;20115;-68
2021/05/20 01:53:30;;;;;;;39.75;25.33;;;7.80;99.90;;;;;;5058862;28;20048;-68
2021/05/20 01:55:56;;;;;;;34.58;23.73;;;7.90;99.90;;;;;;5058555;28;20033;-69
2021/05/20 01:58:22;;;;;;;36.40;23.92;;;7.90;99.90;;;;;;5059350;28;20041;-69
2021/05/20 02:00:47;;;;;;;34.70;24.85;;;7.90;99.90;;;;;;5058944;28;20386;-68
2021/05/20 02:03:13;;;;;;;33.28;23.17;;;7.90;99.90;;;;;;5059588;28;20036;-68
2021/05/20 02:05:38;;;;;;;37.85;27.30;;;7.90;99.90;;;;;;5061806;28;20021;-69
2021/05/20 02:08:04;;;;;;;29.27;20.73;;;8.00;99.90;;;;;;5060367;28;20025;-69
2021/05/20 02:10:30;;;;;;;28.45;19.27;;;8.00;99.90;;;;;;5059538;28;20031;-69
2021/05/20 02:12:56;;;;;;;30.23;21.85;;;7.90;99.90;;;;;;5058779;28;20055;-69
2021/05/20 02:15:22;;;;;;;34.70;24.08;;;7.60;99.90;;;;;;5057427;28;20481;-68
2021/05/20 02:17:47;;;;;;;25.77;18.75;;;7.60;99.90;;;;;;5059142;28;20029;-68
2021/05/20 02:20:13;;;;;;;30.05;22.48;;;7.60;99.90;;;;;;5057807;28;20124;-68
2021/05/20 02:22:39;;;;;;;39.30;26.67;;;7.50;99.90;;;;;;5065189;28;20466;-68
2021/05/20 02:25:06;;;;;;;39.45;26.45;;;7.40;99.90;;;;;;5060695;28;20017;-68
2021/05/20 02:27:31;;;;;;;42.80;28.67;;;7.40;99.90;;;;;;5060704;28;20048;-68
2021/05/20 02:29:57;;;;;;;37.78;26.88;;;7.40;99.90;;;;;;5054336;28;20016;-68
2021/05/20 02:32:23;;;;;;;38.80;28.17;;;7.40;99.90;;;;;;5061971;28;20047;-68
2021/05/20 02:34:48;;;;;;;40.72;29.42;;;7.30;99.90;;;;;;5058553;28;20119;-68
2021/05/20 02:37:14;;;;;;;42.33;29.30;;;7.30;99.90;;;;;;5057346;28;20081;-69
2021/05/20 02:39:40;;;;;;;44.03;30.27;;;7.30;99.90;;;;;;5058713;28;20486;-68
2021/05/20 02:42:06;;;;;;;47.53;30.40;;;7.30;99.90;;;;;;5061950;28;20060;-69
2021/05/20 02:44:32;;;;;;;47.90;30.30;;;7.40;99.90;;;;;;5062055;28;20028;-68
2021/05/20 02:46:57;;;;;;;40.13;29.60;;;7.30;99.90;;;;;;5058466;28;20397;-68
2021/05/20 02:49:23;;;;;;;46.15;30.10;;;7.30;99.90;;;;;;5054279;28;20040;-68
2021/05/20 02:51:49;;;;;;;39.83;27.00;;;7.30;99.90;;;;;;5061481;28;20021;-68
2021/05/20 02:54:14;;;;;;;38.22;25.52;;;7.30;99.90;;;;;;5054068;28;20420;-68
2021/05/20 02:56:40;;;;;;;39.22;26.13;;;7.20;99.90;;;;;;5060691;28;20078;-68
2021/05/20 02:59:06;;;;;;;44.10;28.67;;;7.20;99.90;;;;;;5059445;28;20079;-68
2021/05/20 03:01:39;;;;;;;62.22;35.88;;;7.10;99.90;;;;;;5058036;28;20032;-68
2021/05/20 03:04:05;;;;;;;39.22;26.50;;;7.20;99.90;;;;;;5057760;28;20071;-68
2021/05/20 03:06:30;;;;;;;42.17;26.27;;;7.20;99.90;;;;;;5059772;28;20241;-68
2021/05/20 03:08:57;;;;;;;42.53;27.65;;;7.20;99.90;;;;;;5067134;28;20447;-68
2021/05/20 03:11:24;;;;;;;58.05;37.08;;;7.20;99.90;;;;;;5064793;28;20035;-68
2021/05/20 03:13:50;;;;;;;39.95;27.88;;;7.20;99.90;;;;;;5065287;28;20024;-68
2021/05/20 03:16:16;;;;;;;54.28;34.38;;;7.10;99.90;;;;;;5064185;28;20485;-69
2021/05/20 03:18:41;;;;;;;70.38;40.42;;;7.00;99.90;;;;;;5065180;28;20031;-68
2021/05/20 03:21:07;;;;;;;59.65;38.05;;;7.20;99.90;;;;;;5064803;28;20047;-68
2021/05/20 03:23:33;;;;;;;47.95;32.00;;;7.40;99.90;;;;;;5063486;28;20029;-68
2021/05/20 03:25:58;;;;;;;59.97;37.50;;;7.30;99.90;;;;;;5060622;28;20021;-68
2021/05/20 03:28:24;;;;;;;65.35;38.28;;;7.30;99.90;;;;;;5053849;28;20040;-68
2021/05/20 03:30:49;;;;;;;53.28;33.97;;;7.40;99.90;;;;;;5068712;28;20029;-68
2021/05/20 03:33:15;;;;;;;48.72;33.65;;;7.40;99.90;;;;;;5061758;28;20032;-68
2021/05/20 03:35:41;;;;;;;42.47;28.45;;;7.40;99.90;;;;;;5062464;28;20084;-68
2021/05/20 03:38:07;;;;;;;39.63;27.55;;;7.40;99.90;;;;;;5064865;28;20055;-68
2021/05/20 03:40:33;;;;;;;56.40;34.55;;;7.30;99.90;;;;;;5065161;28;20058;-68
2021/05/20 03:42:58;;;;;;;61.38;36.35;;;7.20;99.90;;;;;;5061651;28;20480;-70
2021/05/20 03:45:24;;;;;;;50.75;33.72;;;7.30;99.90;;;;;;5061416;28;20100;-69
2021/05/20 03:47:49;;;;;;;47.65;32.95;;;7.30;99.90;;;;;;5053076;28;20123;-68
2021/05/20 03:50:15;;;;;;;49.25;32.80;;;7.30;99.90;;;;;;5064714;28;20104;-69
2021/05/20 03:52:41;;;;;;;47.25;30.40;;;7.20;99.90;;;;;;5057502;28;20035;-69
2021/05/20 03:55:07;;;;;;;42.25;29.75;;;7.20;99.90;;;;;;5063096;28;20029;-68
2021/05/20 03:57:32;;;;;;;44.50;29.58;;;7.00;99.90;;;;;;5060048;28;20036;-68
2021/05/20 03:59:58;;;;;;;60.65;36.38;;;7.10;99.90;;;;;;5059769;28;20033;-69
2021/05/20 04:02:24;;;;;;;56.17;36.03;;;7.20;99.90;;;;;;5064173;28;20036;-68
2021/05/20 04:04:49;;;;;;;41.45;29.20;;;7.20;99.90;;;;;;5064414;28;20020;-68
2021/05/20 04:07:15;;;;;;;59.35;35.92;;;7.30;99.90;;;;;;5062639;28;20032;-68
2021/05/20 04:09:40;;;;;;;55.80;36.65;;;7.30;99.90;;;;;;5059670;28;20021;-68
2021/05/20 04:12:06;;;;;;;56.65;35.10;;;7.30;99.90;;;;;;5059729;28;20028;-68
2021/05/20 04:14:32;;;;;;;53.55;35.97;;;7.40;99.90;;;;;;5063414;28;20033;-68
2021/05/20 04:16:58;;;;;;;48.35;31.75;;;7.40;99.90;;;;;;5063535;28;20305;-68
2021/05/20 04:19:23;;;;;;;50.38;33.72;;;7.40;99.90;;;;;;5061204;28;20033;-68
2021/05/20 04:21:49;;;;;;;50.35;36.88;;;7.40;99.90;;;;;;5060776;28;20020;-68
2021/05/20 04:24:15;;;;;;;49.05;32.75;;;7.50;99.90;;;;;;5064070;28;20463;-69
2021/05/20 04:26:40;;;;;;;49.08;32.97;;;7.60;99.90;;;;;;5055366;28;20035;-69
2021/05/20 04:29:08;;;;;;;44.13;30.05;;;7.70;99.90;;;;;;5062389;28;20430;-68
2021/05/20 04:31:34;;;;;;;47.45;31.25;;;7.60;99.90;;;;;;5062180;28;20533;-68
2021/05/20 04:33:59;;;;;;;44.13;30.92;;;7.50;99.90;;;;;;5060324;28;20116;-68
2021/05/20 04:36:25;;;;;;;50.33;32.92;;;7.50;99.90;;;;;;5061076;28;20371;-68
2021/05/20 04:38:51;;;;;;;45.08;31.77;;;7.50;99.90;;;;;;5067057;28;20040;-69
2021/05/20 04:41:16;;;;;;;47.53;33.67;;;7.50;99.90;;;;;;5058421;28;20039;-69
2021/05/20 04:43:42;;;;;;;44.50;31.92;;;7.50;99.90;;;;;;5060818;28;20025;-68
2021/05/20 04:46:08;;;;;;;50.35;32.78;;;7.60;99.90;;;;;;5059445;28;20039;-68
2021/05/20 04:48:33;;;;;;;46.42;32.50;;;7.50;99.90;;;;;;5060379;28;20035;-69
2021/05/20 04:51:00;;;;;;;51.15;34.17;;;7.50;99.90;;;;;;5062873;28;20037;-69
2021/05/20 04:53:26;;;;;;;48.45;33.95;;;7.60;99.90;;;;;;5062379;28;20035;-68
2021/05/20 04:55:52;;;;;;;49.47;34.55;;;7.60;99.90;;;;;;5061587;28;20111;-68
2021/05/20 04:58:17;;;;;;;51.90;34.90;;;7.60;99.90;;;;;;5060036;28;20025;-68
2021/05/20 05:00:43;;;;;;;47.97;34.35;;;7.70;99.90;;;;;;5059381;28;20056;-68
2021/05/20 05:03:09;;;;;;;47.97;34.05;;;7.80;99.90;;;;;;5061008;28;20017;-68
2021/05/20 05:05:34;;;;;;;50.33;33.13;;;7.80;99.90;;;;;;5058617;28;20030;-69
2021/05/20 05:08:00;;;;;;;51.55;35.95;;;7.80;99.90;;;;;;5060445;28;20013;-68
2021/05/20 05:10:26;;;;;;;48.97;32.05;;;7.90;99.90;;;;;;5063164;28;20048;-68
2021/05/20 05:12:52;;;;;;;49.97;35.38;;;7.90;99.90;;;;;;5064624;28;20035;-69
2021/05/20 05:15:18;;;;;;;49.95;34.63;;;8.00;99.90;;;;;;5059653;28;20122;-68
2021/05/20 05:17:43;;;;;;;53.53;34.65;;;8.00;99.90;;;;;;5063162;28;20047;-68
2021/05/20 05:20:09;;;;;;;53.78;35.80;;;8.10;99.90;;;;;;5062854;28;20032;-68
2021/05/20 05:22:35;;;;;;;48.50;34.25;;;8.10;99.90;;;;;;5053657;28;20021;-69
2021/05/20 05:25:01;;;;;;;55.47;34.15;;;8.20;99.90;;;;;;5064127;28;20066;-68
2021/05/20 05:27:27;;;;;;;46.72;32.33;;;8.30;99.90;;;;;;5060831;28;20041;-69
2021/05/20 05:29:52;;;;;;;53.72;33.13;;;8.40;99.90;;;;;;5062514;28;20048;-69
2021/05/20 05:32:18;;;;;;;45.13;31.50;;;8.40;99.90;;;;;;5060802;28;20050;-69
2021/05/20 05:34:44;;;;;;;41.78;30.65;;;8.40;99.90;;;;;;5077097;28;20036;-68
2021/05/20 05:37:09;;;;;;;45.72;30.80;;;8.50;99.90;;;;;;5061853;28;20043;-68
2021/05/20 05:39:35;;;;;;;45.25;30.52;;;8.40;99.90;;;;;;5061398;28;20428;-69
2021/05/20 05:42:01;;;;;;;43.58;29.50;;;8.40;99.90;;;;;;5058509;28;20447;-69
2021/05/20 05:44:26;;;;;;;42.70;30.48;;;8.40;99.90;;;;;;5058912;28;20021;-68
2021/05/20 05:46:52;;;;;;;37.90;28.70;;;8.40;99.90;;;;;;5059564;28;20537;-68
2021/05/20 05:49:32;;;;;;;40.38;28.63;;;8.40;99.90;;;;;;5057371;28;20528;-68
2021/05/20 05:52:01;;;;;;;49.58;30.52;;;8.50;99.90;;;;;;5058488;28;20412;-69
2021/05/20 05:54:26;;;;;;;43.35;29.20;;;8.60;99.90;;;;;;5056531;28;20505;-69
2021/05/20 05:56:52;;;;;;;40.38;28.63;;;8.70;99.90;;;;;;5054947;28;20028;-69
2021/05/20 05:59:18;;;;;;;37.22;27.58;;;8.90;99.90;;;;;;5056160;28;20126;-69
2021/05/20 06:01:45;;;;;;;37.70;25.27;;;8.90;99.90;;;;;;5044726;28;20020;-69
2021/05/20 06:04:10;;;;;;;35.53;27.40;;;8.90;99.90;;;;;;5059641;28;20039;-69
2021/05/20 06:06:36;;;;;;;34.15;24.95;;;8.90;99.90;;;;;;5062132;28;20032;-69
2021/05/20 06:09:06;;;;;;;31.58;25.17;;;9.00;99.90;;;;;;5063427;28;20489;-68
2021/05/20 06:11:35;;;;;;;33.95;23.60;;;9.10;99.90;;;;;;5049425;28;20493;-69
2021/05/20 06:14:03;;;;;;;29.13;21.75;;;9.10;99.90;;;;;;5059875;28;20111;-70
2021/05/20 06:16:29;;;;;;;30.42;21.95;;;9.10;99.90;;;;;;5053362;28;20487;-69
2021/05/20 06:18:55;;;;;;;33.83;23.75;;;9.10;99.90;;;;;;5057146;28;20179;-69
2021/05/20 06:21:21;;;;;;;30.00;23.27;;;9.20;99.90;;;;;;5053628;28;20500;-68
2021/05/20 06:23:47;;;;;;;31.50;23.27;;;9.40;99.90;;;;;;5058516;28;20013;-68
2021/05/20 06:26:12;;;;;;;29.38;22.17;;;9.60;99.90;;;;;;5063636;28;20065;-69
2021/05/20 06:28:39;;;;;;;27.35;21.88;;;9.70;99.90;;;;;;5060473;28;20036;-69
2021/05/20 06:31:04;;;;;;;31.85;23.88;;;9.80;99.90;;;;;;5056904;28;20039;-69
2021/05/20 06:33:30;;;;;;;28.73;21.50;;;10.00;99.90;;;;;;5053444;28;20024;-69
2021/05/20 06:35:55;;;;;;;27.52;21.52;;;10.10;99.90;;;;;;5052015;28;20064;-70
2021/05/20 06:38:23;;;;;;;30.00;21.25;;;10.10;99.90;;;;;;5052465;28;20021;-69
2021/05/20 06:40:48;;;;;;;27.77;21.05;;;10.20;99.90;;;;;;5059855;28;20067;-70
2021/05/20 06:43:14;;;;;;;26.75;19.75;;;10.30;99.90;;;;;;5048822;28;20053;-70
2021/05/20 06:45:40;;;;;;;21.92;17.55;;;10.50;99.90;;;;;;5058124;28;20547;-70
2021/05/20 06:48:05;;;;;;;21.27;14.57;;;11.10;99.90;;;;;;5057769;28;20021;-70
2021/05/20 06:50:31;;;;;;;18.83;14.45;;;12.00;99.90;;;;;;5055982;28;20116;-70
2021/05/20 06:52:58;;;;;;;18.33;13.15;;;12.90;99.90;;;;;;5052592;28;20237;-70
2021/05/20 06:55:23;;;;;;;17.75;11.73;;;13.90;99.90;;;;;;5054167;28;20097;-70
2021/05/20 07:00:35;;;;;;;14.98;10.85;;;14.60;99.90;;;;;;5048480;28;20043;-70
2021/05/20 07:03:02;;;;;;;16.83;11.15;;;15.30;99.90;;;;;;5046918;28;20111;-70
2021/05/20 07:05:28;;;;;;;13.95;10.88;;;15.30;99.90;;;;;;5047406;28;20290;-70
2021/05/20 07:07:54;;;;;;;18.95;10.93;;;16.10;99.90;;;;;;5049939;28;20107;-70
2021/05/20 07:10:20;;;;;;;13.25;10.32;;;15.70;99.90;;;;;;5040825;28;20031;-70
2021/05/20 07:12:45;;;;;;;19.15;10.85;;;15.50;99.90;;;;;;5042273;28;20992;-70
2021/05/20 07:15:12;;;;;;;14.60;10.38;;;14.70;99.90;;;;;;5048453;28;20111;-70
2021/05/20 07:17:37;;;;;;;18.20;9.55;;;15.30;99.90;;;;;;5050483;28;20032;-71
2021/05/20 07:20:08;;;;;;;11.32;9.25;;;15.90;99.90;;;;;;5050743;28;20040;-73
2021/05/20 07:22:33;;;;;;;13.65;9.48;;;16.50;99.90;;;;;;5054091;28;20028;-71
2021/05/20 07:25:03;;;;;;;12.65;9.05;;;16.20;99.90;;;;;;5045049;28;20095;-70
2021/05/20 07:27:30;;;;;;;13.65;9.52;;;16.30;99.90;;;;;;5057377;28;20795;-69
2021/05/20 07:29:55;;;;;;;16.10;10.68;;;16.20;99.90;;;;;;5053363;28;20131;-69
2021/05/20 07:32:21;;;;;;;14.57;10.57;;;15.80;99.90;;;;;;5045858;28;20037;-71
2021/05/20 07:34:47;;;;;;;20.30;11.73;;;16.00;99.90;;;;;;5056196;28;20445;-68
2021/05/20 07:37:13;;;;;;;18.60;14.10;;;15.60;99.90;;;;;;5053382;28;20039;-70
2021/05/20 07:39:38;;;;;;;20.73;15.43;;;15.50;99.90;;;;;;5051840;28;20028;-71
2021/05/20 07:42:05;;;;;;;23.08;17.02;;;15.10;99.90;;;;;;5040866;28;20028;-70
2021/05/20 07:44:31;;;;;;;29.67;19.40;;;15.30;99.90;;;;;;5048745;28;20036;-71
2021/05/20 07:46:57;;;;;;;29.17;20.60;;;15.00;99.90;;;;;;5051316;28;20035;-70
2021/05/20 07:49:26;;;;;;;38.75;23.48;;;14.30;99.90;;;;;;5058930;28;20044;-69
2021/05/20 07:51:52;;;;;;;39.00;24.33;;;13.40;99.90;;;;;;5060448;28;20435;-70
2021/05/20 07:54:19;;;;;;;41.03;25.25;;;12.90;99.90;;;;;;5053293;28;20095;-72
2021/05/20 07:56:44;;;;;;;46.40;28.38;;;12.50;99.90;;;;;;5053396;28;20033;-70
2021/05/20 07:59:11;;;;;;;49.53;31.08;;;12.10;99.90;;;;;;5057520;28;20048;-70
2021/05/20 08:01:39;;;;;;;45.58;29.25;;;11.90;99.90;;;;;;5053739;28;20025;-69
2021/05/20 08:04:12;;;;;;;47.30;27.00;;;12.10;99.90;;;;;;5052015;28;20067;-70
2021/05/20 08:06:54;;;;;;;32.38;20.90;;;12.50;99.90;;;;;;5051668;28;20028;-69
2021/05/20 08:09:48;;;;;;;;;;;13.10;99.90;;;;;;5056547;28;20029;-69
2021/05/20 08:12:08;;;;;;;41.13;25.20;;;13.30;99.90;;;;;;5055625;28;19951;-70
2021/05/20 08:14:34;;;;;;;36.47;24.77;;;14.40;99.90;;;;;;5056178;28;20043;-68
2021/05/20 08:16:59;;;;;;;35.65;25.10;;;14.80;99.90;;;;;;5056099;28;20428;-68
2021/05/20 08:19:25;;;;;;;41.17;25.92;;;14.10;99.90;;;;;;5052559;28;20132;-70
2021/05/20 08:21:51;;;;;;;37.70;22.48;;;13.90;99.90;;;;;;5060358;28;20029;-68
2021/05/20 08:24:16;;;;;;;39.03;22.38;;;14.50;99.90;;;;;;5057426;28;20067;-68
2021/05/20 08:26:42;;;;;;;36.65;21.52;;;14.60;99.90;;;;;;5052387;28;20025;-69
2021/05/20 08:29:07;;;;;;;34.10;21.45;;;14.80;99.90;;;;;;5058912;28;20016;-70
2021/05/20 08:31:34;;;;;;;35.15;20.85;;;14.90;99.90;;;;;;5060641;28;20044;-70
2021/05/20 08:34:00;;;;;;;32.47;21.25;;;14.70;99.90;;;;;;5060771;28;20039;-70
2021/05/20 08:36:26;;;;;;;30.65;20.80;;;14.60;99.90;;;;;;5058273;28;20029;-70
2021/05/20 08:38:51;;;;;;;31.85;19.48;;;14.40;99.90;;;;;;5055193;28;20123;-69
2021/05/20 08:41:19;;;;;;;29.35;18.27;;;14.80;99.90;;;;;;5056866;28;20895;-69
2021/05/20 08:43:46;;;;;;;33.78;19.70;;;15.30;99.90;;;;;;5047961;28;20016;-70
2021/05/20 08:46:12;;;;;;;24.40;16.80;;;16.00;99.90;;;;;;5052865;28;20389;-68
2021/05/20 08:48:38;;;;;;;22.05;17.13;;;16.90;99.90;;;;;;5058185;28;20028;-68
2021/05/20 08:51:04;;;;;;;22.38;16.05;;;16.70;99.90;;;;;;5059404;28;20120;-71
2021/05/20 08:53:29;;;;;;;19.27;13.68;;;16.20;99.90;;;;;;5053707;28;20021;-76
2021/05/20 08:55:56;;;;;;;17.63;15.23;;;16.50;99.90;;;;;;5053340;28;20104;-73
2021/05/20 08:58:25;;;;;;;20.38;14.23;;;16.30;99.90;;;;;;5061370;28;20024;-69
2021/05/20 09:00:52;;;;;;;19.27;15.27;;;15.60;99.90;;;;;;5065693;28;20025;-70
2021/05/20 09:03:20;;;;;;;18.58;15.35;;;15.60;99.90;;;;;;5051396;28;20075;-70
2021/05/20 09:05:46;;;;;;;20.85;16.52;;;15.70;99.90;;;;;;5055305;28;20029;-70
2021/05/20 09:08:18;;;;;;;19.58;16.08;;;15.40;99.90;;;;;;5055007;28;20025;-68
2021/05/20 09:10:46;;;;;;;19.45;15.43;;;14.90;99.90;;;;;;5056612;28;20561;-69
2021/05/20 09:13:19;;;;;;;22.80;15.38;;;15.00;99.90;;;;;;5048814;28;20116;-69
2021/05/20 09:15:50;;;;;;;17.05;14.32;;;14.80;99.90;;;;;;5056991;28;20027;-70
2021/05/20 09:18:18;;;;;;;16.60;14.27;;;14.60;99.90;;;;;;5062222;28;20065;-71
2021/05/20 09:20:46;;;;;;;18.15;15.23;;;14.40;99.90;;;;;;5060694;28;20032;-70
2021/05/20 09:23:15;;;;;;;20.15;16.05;;;13.90;99.90;;;;;;5052335;28;20624;-71
2021/05/20 09:25:42;;;;;;;16.55;14.77;;;13.50;99.90;;;;;;5057122;28;20392;-70
2021/05/20 09:28:09;;;;;;;18.00;14.88;;;13.50;99.90;;;;;;5057843;28;20051;-69
2021/05/20 09:30:43;;;;;;;20.33;15.55;;;12.90;99.90;;;;;;5061935;28;20029;-70
2021/05/20 09:33:11;;;;;;;15.32;13.15;;;12.70;99.90;;;;;;5045327;28;20056;-68
2021/05/20 09:35:42;;;;;;;15.70;13.23;;;12.50;99.90;;;;;;5060631;28;20083;-69
2021/05/20 09:38:13;;;;;;;16.42;12.63;;;12.30;99.90;;;;;;5060028;28;20094;-69
2021/05/20 09:40:41;;;;;;;15.98;12.75;;;12.50;99.90;;;;;;5057798;28;20503;-71
2021/05/20 09:43:21;;;;;;;14.15;11.57;;;12.50;99.90;;;;;;5052152;28;20039;-70
2021/05/20 09:45:52;;;;;;;16.40;14.60;;;12.60;99.90;;;;;;5054014;28;20026;-69
2021/05/20 09:48:21;;;;;;;15.27;13.68;;;12.20;99.90;;;;;;5052882;28;20358;-71
2021/05/20 09:50:55;;;;;;;16.08;13.52;;;12.00;99.90;;;;;;5054525;28;20070;-68
2021/05/20 09:53:23;;;;;;;17.00;13.63;;;12.00;99.90;;;;;;5040077;28;20033;-71
2021/05/20 09:55:59;;;;;;;14.98;13.38;;;12.20;99.90;;;;;;5057313;28;20052;-70
2021/05/20 09:58:31;;;;;;;14.40;12.90;;;11.90;99.90;;;;;;5057219;28;20032;-70
2021/05/20 10:00:58;;;;;;;13.50;12.10;;;11.80;99.90;;;;;;5049164;28;20029;-69
2021/05/20 10:03:25;;;;;;;12.45;10.30;;;11.70;99.90;;;;;;5053915;28;20036;-70
2021/05/20 10:05:52;;;;;;;12.73;11.25;;;11.80;99.90;;;;;;5056935;28;20029;-69
2021/05/20 10:08:20;;;;;;;11.38;10.27;;;11.90;99.90;;;;;;5059459;28;20423;-71
2021/05/20 10:10:48;;;;;;;11.20;9.57;;;12.00;99.90;;;;;;5056410;28;20021;-71
2021/05/20 10:13:20;;;;;;;11.80;9.82;;;12.20;99.90;;;;;;5050041;28;20085;-71
2021/05/20 10:15:46;;;;;;;10.15;8.55;;;12.50;99.90;;;;;;5056734;28;20036;-71
2021/05/20 10:18:30;;;;;;;12.00;8.30;;;12.70;99.90;;;;;;5056831;28;20039;-71
2021/05/20 10:21:01;;;;;;;8.82;7.93;;;12.90;99.90;;;;;;5065899;28;20056;-71
2021/05/20 10:23:27;;;;;;;9.30;8.40;;;13.30;99.90;;;;;;5044564;28;20037;-71
2021/05/20 10:25:55;;;;;;;9.43;8.52;;;13.40;99.90;;;;;;5053582;28;20021;-71
2021/05/20 10:28:22;;;;;;;9.00;8.20;;;13.70;99.90;;;;;;5061361;28;20193;-71
2021/05/20 10:30:52;;;;;;;10.07;8.00;;;13.90;99.90;;;;;;5052838;28;20025;-71
2021/05/20 10:33:24;;;;;;;9.27;8.30;;;14.00;99.90;;;;;;5053653;28;20037;-71
2021/05/20 10:35:52;;;;;;;9.60;7.35;;;13.90;99.90;;;;;;5056796;28;20511;-71
2021/05/20 10:38:36;;;;;;;7.93;7.13;;;14.20;99.90;;;;;;5052942;28;20485;-71
2021/05/20 10:41:23;;;;;;;8.35;7.43;;;14.30;99.90;;;;;;5057782;28;20500;-71
2021/05/20 10:44:07;;;;;;;8.73;7.15;;;14.10;99.90;;;;;;5053661;28;20120;-71
2021/05/20 10:47:02;;;;;;;6.97;6.30;;;14.60;99.90;;;;;;5052367;28;20427;-72
2021/05/20 10:49:46;;;;;;;8.70;7.43;;;14.60;99.90;;;;;;5056014;28;20133;-71
2021/05/20 10:52:39;;;;;;;7.28;6.57;;;14.50;99.90;;;;;;5060257;28;20060;-71
2021/05/20 10:55:15;;;;;;;10.85;7.50;;;14.40;99.90;;;;;;5055804;28;20029;-71
2021/05/20 10:57:57;;;;;;;8.30;7.50;;;14.20;99.90;;;;;;5052850;28;20052;-71
2021/05/20 11:00:41;;;;;;;8.23;7.53;;;14.20;99.90;;;;;;5056252;28;20040;-69
2021/05/20 11:03:08;;;;;;;8.73;7.18;;;14.30;99.90;;;;;;5076152;28;20021;-71
2021/05/20 11:05:40;;;;;;;7.90;7.13;;;14.50;99.90;;;;;;5056219;28;20032;-74
2021/05/20 11:08:10;;;;;;;7.80;7.00;;;14.80;99.90;;;;;;5056947;28;20024;-71
2021/05/20 11:10:37;;;;;;;7.22;6.63;;;14.90;99.90;;;;;;5052265;28;20024;-71
2021/05/20 11:13:05;;;;;;;8.32;6.32;;;15.00;99.90;;;;;;5045537;28;20477;-71
2021/05/20 11:15:31;;;;;;;8.55;7.15;;;14.80;99.90;;;;;;5058281;28;20029;-71
2021/05/20 11:18:35;;;;;;;8.05;6.60;;;14.60;99.90;;;;;;5062022;28;20086;-71
2021/05/20 11:21:00;;;;;;;7.63;7.00;;;14.70;99.90;;;;;;5061340;28;20067;-71
2021/05/20 11:23:28;;;;;;;7.88;7.18;;;14.50;99.90;;;;;;5058205;28;20063;-71
2021/05/20 11:26:07;;;;;;;7.78;7.00;;;14.80;99.90;;;;;;5056488;28;20051;-71
2021/05/20 11:28:51;;;;;;;9.93;6.90;;;15.00;99.90;;;;;;5056496;28;20095;-69
2021/05/20 11:31:17;;;;;;;8.85;7.65;;;14.90;99.90;;;;;;5075061;28;20028;-70
2021/05/20 11:33:56;;;;;;;8.50;7.00;;;14.80;99.90;;;;;;5064767;28;20067;-69
2021/05/20 11:36:21;;;;;;;7.47;6.63;;;14.90;99.90;;;;;;5059041;28;20415;-72
2021/05/20 11:39:01;;;;;;;8.32;7.45;;;15.00;99.90;;;;;;5069427;28;20040;-68
2021/05/20 11:41:27;;;;;;;7.32;6.32;;;14.90;99.90;;;;;;5069794;28;20065;-69
2021/05/20 11:44:21;;;;;;;7.55;6.78;;;14.90;99.90;;;;;;5063126;28;20025;-69
2021/05/20 11:47:08;;;;;;;8.40;6.75;;;14.60;99.90;;;;;;5064587;28;20512;-68
2021/05/20 11:49:35;;;;;;;7.47;6.55;;;14.50;99.90;;;;;;5063321;28;20033;-68
2021/05/20 11:52:03;;;;;;;8.15;7.13;;;14.40;99.90;;;;;;5059876;28;20032;-68
2021/05/20 11:54:31;;;;;;;8.00;6.78;;;14.50;99.90;;;;;;5065263;28;20357;-68
2021/05/20 11:57:02;;;;;;;7.95;6.35;;;14.70;99.90;;;;;;5068176;28;20035;-68
2021/05/20 11:59:35;;;;;;;7.85;5.80;;;14.90;99.90;;;;;;5055021;28;20033;-68
2021/05/20 12:02:01;;;;;;;;;;;15.30;99.90;;;;;;5064940;28;20035;-67
2021/05/20 12:04:27;;;;;;;8.68;6.30;;;15.40;99.90;;;;;;5062969;28;19909;-68
2021/05/20 12:06:54;;;;;;;6.90;6.10;;;15.70;99.90;;;;;;5053184;28;20029;-67
2021/05/20 12:09:20;;;;;;;6.40;5.63;;;15.90;99.90;;;;;;5057195;28;20029;-68
2021/05/20 12:11:47;;;;;;;7.88;5.40;;;15.60;99.90;;;;;;5057536;28;20040;-68
2021/05/20 12:14:26;;;;;;;7.35;5.63;;;15.40;99.90;;;;;;5057641;28;20017;-68
2021/05/20 12:17:02;;;;;;;8.93;5.78;;;15.40;99.90;;;;;;5059170;28;20035;-67
2021/05/20 12:19:30;;;;;;;7.05;6.32;;;15.20;99.90;;;;;;5060826;28;20445;-71
2021/05/20 12:22:17;;;;;;;7.57;5.18;;;15.10;99.90;;;;;;5064650;28;20020;-71
2021/05/20 12:24:53;;;;;;;5.97;4.88;;;15.10;99.90;;;;;;5053613;28;20017;-68
2021/05/20 12:27:39;;;;;;;9.43;5.47;;;15.00;99.90;;;;;;5059324;28;20041;-70
2021/05/20 12:30:12;;;;;;;10.52;5.22;;;15.00;99.90;;;;;;5051820;28;20052;-68
2021/05/20 12:32:48;;;;;;;10.95;5.57;;;15.10;99.90;;;;;;5060675;28;20029;-68
2021/05/20 12:35:31;;;;;;;6.70;4.82;;;15.20;99.90;;;;;;5055313;28;20032;-68
2021/05/20 12:38:08;;;;;;;9.40;4.90;;;15.50;99.90;;;;;;5060459;28;20040;-70
2021/05/20 12:40:43;;;;;;;6.75;5.07;;;15.70;99.90;;;;;;5054015;28;20044;-70
2021/05/20 12:43:28;;;;;;;6.78;4.32;;;15.70;99.90;;;;;;5063412;28;20445;-68
2021/05/20 12:45:58;;;;;;;6.80;4.40;;;15.70;99.90;;;;;;5061452;28;20373;-68